createdAt,value
2019-05-15T00:01:28.391Z,100932.36
2019-05-15T00:03:59.431Z,100936.44
2019-05-15T00:06:30.803Z,100931.03
2019-05-15T00:09:02.246Z,100929.29
2019-05-15T00:11:33.828Z,100936.33
2019-05-15T00:14:05.372Z,100935.86
2019-05-15T00:16:38.797Z,100933.56
2019-05-15T00:19:10.231Z,100931.77
2019-05-15T00:21:41.487Z,100933.44
2019-05-15T00:24:13.406Z,100933.47
2019-05-15T00:26:47.914Z,100927.08
2019-05-15T00:29:19.730Z,100931.52
2019-05-15T00:31:52.532Z,100924.33
2019-05-15T00:34:24.150Z,100931.50
2019-05-15T00:36:55.469Z,100937.12
2019-05-15T00:39:28.372Z,100933.65
2019-05-15T00:41:59.979Z,100942.48
2019-05-15T00:44:31.401Z,100942.48
2019-05-15T00:47:02.875Z,100939.74
2019-05-15T00:49:34.272Z,100939.30
2019-05-15T00:52:05.911Z,100940.77
2019-05-15T00:54:38.848Z,100941.95
2019-05-15T00:57:10.323Z,100941.54
2019-05-15T00:59:41.650Z,100940.53
2019-05-15T01:02:13.017Z,100942.95
2019-05-15T01:04:44.257Z,100935.41
2019-05-15T01:07:15.672Z,100938.87
2019-05-15T01:09:48.696Z,100935.86
2019-05-15T01:12:21.300Z,100940.44
2019-05-15T01:14:52.613Z,100944.92
2019-05-15T01:17:23.944Z,100941.24
2019-05-15T01:19:55.382Z,100933.41
2019-05-15T01:22:28.659Z,100942.31
2019-05-15T01:25:00.022Z,100947.43
2019-05-15T01:27:31.498Z,100943.11
2019-05-15T01:30:03.004Z,100939.53
2019-05-15T01:32:34.483Z,100945.36
2019-05-15T01:35:09.204Z,100949.53
2019-05-15T01:37:39.450Z,100947.11
2019-05-15T01:40:10.838Z,100948.68
2019-05-15T01:42:42.270Z,100949.18
2019-05-15T01:45:14.849Z,100951.59
2019-05-15T01:47:47.982Z,100949.72
2019-05-15T01:50:20.771Z,100948.00
2019-05-15T01:52:52.194Z,100949.23
2019-05-15T01:55:23.508Z,100953.27
2019-05-15T01:57:55.067Z,100954.39
2019-05-15T02:00:28.217Z,100950.75
2019-05-15T02:02:59.382Z,100955.97
2019-05-15T02:05:30.940Z,100957.73
2019-05-15T02:08:02.273Z,100966.61
2019-05-15T02:10:33.622Z,100964.66
2019-05-15T02:13:05.078Z,100971.14
2019-05-15T02:15:36.572Z,100969.05
2019-05-15T02:18:09.616Z,100965.14
2019-05-15T02:20:40.904Z,100972.13
2019-05-15T02:23:12.295Z,100961.16
2019-05-15T02:25:43.545Z,100962.22
2019-05-15T02:28:14.845Z,100963.05
2019-05-15T02:30:46.077Z,100954.66
2019-05-15T02:33:18.870Z,100960.17
2019-05-15T02:35:50.599Z,100967.01
2019-05-15T02:38:21.825Z,100969.03
2019-05-15T02:40:53.130Z,100973.14
2019-05-15T02:43:24.577Z,100976.90
2019-05-15T02:45:56.016Z,100968.26
2019-05-15T02:48:28.983Z,100972.34
2019-05-15T02:50:59.969Z,100969.82
2019-05-15T02:53:32.170Z,100967.67
2019-05-15T02:56:03.635Z,100965.47
2019-05-15T02:58:35.098Z,100968.32
2019-05-15T03:01:09.147Z,100967.55
2019-05-15T03:03:41.069Z,100964.97
2019-05-15T03:06:12.727Z,100963.76
2019-05-15T03:08:44.016Z,100969.05
2019-05-15T03:11:15.277Z,100973.34
2019-05-15T03:13:49.954Z,100968.00
2019-05-15T03:16:19.876Z,100973.51
2019-05-15T03:18:55.183Z,100977.56
2019-05-15T03:21:24.325Z,100967.27
2019-05-15T03:23:55.648Z,100973.89
2019-05-15T03:26:29.639Z,100961.54
2019-05-15T03:29:00.084Z,100971.06
2019-05-15T03:31:50.566Z,100966.88
2019-05-15T03:34:04.691Z,100964.94
2019-05-15T03:36:36.092Z,100967.25
2019-05-15T03:39:09.692Z,100970.77
2019-05-15T03:41:40.836Z,100968.36
2019-05-15T03:44:12.148Z,100967.36
2019-05-15T03:46:43.511Z,100971.25
2019-05-15T03:49:14.890Z,100973.55
2019-05-15T03:51:46.345Z,100975.08
2019-05-15T03:54:19.386Z,100973.27
2019-05-15T03:56:50.867Z,100972.55
2019-05-15T03:59:22.268Z,100981.58
2019-05-15T04:01:53.668Z,100982.95
2019-05-15T04:04:25.073Z,100982.09
2019-05-15T04:06:59.332Z,100985.34
2019-05-15T04:09:29.675Z,100989.02
2019-05-15T04:12:01.107Z,100986.63
2019-05-15T04:14:32.549Z,100982.03
2019-05-15T04:17:04.011Z,100982.95
2019-05-15T04:19:35.310Z,100977.47
2019-05-15T04:22:09.166Z,100976.77
2019-05-15T04:24:40.608Z,100977.56
2019-05-15T04:27:13.146Z,100975.06
2019-05-15T04:29:44.644Z,100979.50
2019-05-15T04:32:19.718Z,100994.15
2019-05-15T04:34:49.293Z,100995.83
2019-05-15T04:37:20.861Z,100998.18
2019-05-15T04:39:52.306Z,101005.36
2019-05-15T04:42:23.661Z,101001.52
2019-05-15T04:44:55.481Z,101004.89
2019-05-15T04:47:29.966Z,101008.50
2019-05-15T04:49:59.767Z,101003.60
2019-05-15T04:52:31.200Z,101003.40
2019-05-15T04:55:02.662Z,101007.86
2019-05-15T04:57:34.503Z,101003.66
2019-05-15T05:00:09.555Z,101009.56
2019-05-15T05:02:40.835Z,101013.41
2019-05-15T05:05:12.211Z,101013.52
2019-05-15T05:07:43.584Z,101020.13
2019-05-15T05:10:15.030Z,101021.84
2019-05-15T05:12:50.768Z,101027.59
2019-05-15T05:15:22.683Z,101025.04
2019-05-15T05:17:54.009Z,101033.76
2019-05-15T05:20:25.447Z,101035.77
2019-05-15T05:22:58.383Z,101037.14
2019-05-15T05:25:29.884Z,101039.46
2019-05-15T05:28:01.277Z,101041.58
2019-05-15T05:30:32.811Z,101039.93
2019-05-15T05:33:05.248Z,101037.89
2019-05-15T05:35:38.604Z,101047.66
2019-05-15T05:38:09.707Z,101041.59
2019-05-15T05:40:41.181Z,101052.00
2019-05-15T05:43:12.500Z,101048.91
2019-05-15T05:45:43.937Z,101046.33
2019-05-15T05:48:15.310Z,101041.68
2019-05-15T05:50:49.185Z,101041.98
2019-05-15T05:53:21.335Z,101043.25
2019-05-15T05:55:53.429Z,101044.33
2019-05-15T05:58:24.391Z,101045.98
2019-05-15T06:00:55.637Z,101043.89
2019-05-15T06:03:28.071Z,101039.97
2019-05-15T06:05:59.764Z,101048.86
2019-05-15T06:08:31.087Z,101046.13
2019-05-15T06:11:02.388Z,101052.44
2019-05-15T06:13:33.820Z,101055.00
2019-05-15T06:16:05.112Z,101051.31
2019-05-15T06:18:38.894Z,101054.39
2019-05-15T06:21:09.623Z,101048.28
2019-05-15T06:23:45.287Z,101043.25
2019-05-15T06:26:14.106Z,101047.34
2019-05-15T06:28:45.422Z,101051.30
2019-05-15T06:31:18.819Z,101051.77
2019-05-15T06:33:50.833Z,101052.41
2019-05-15T06:36:22.196Z,101057.34
2019-05-15T06:38:53.621Z,101054.36
2019-05-15T06:41:25.026Z,101058.24
2019-05-15T06:43:58.726Z,101063.48
2019-05-15T06:46:29.748Z,101056.14
2019-05-15T06:49:01.201Z,101050.72
2019-05-15T06:51:32.509Z,101060.52
2019-05-15T06:54:04.164Z,101047.89
2019-05-15T06:56:35.552Z,101053.63
2019-05-15T06:59:08.675Z,101050.92
2019-05-15T07:01:40.495Z,101049.30
2019-05-15T07:04:11.869Z,101048.85
2019-05-15T07:06:43.558Z,101051.92
2019-05-15T07:09:17.814Z,101050.29
2019-05-15T07:11:49.148Z,101052.30
2019-05-15T07:14:20.483Z,101051.23
2019-05-15T07:16:51.884Z,101052.87
2019-05-15T07:19:23.135Z,101053.91
2019-05-15T07:21:54.561Z,101054.30
2019-05-15T07:24:28.945Z,101058.47
2019-05-15T07:27:00.358Z,101060.08
2019-05-15T07:29:31.990Z,101063.14
2019-05-15T07:32:03.394Z,101050.78
2019-05-15T07:34:37.711Z,101050.08
2019-05-15T07:37:09.719Z,101042.08
2019-05-15T07:39:40.912Z,101039.95
2019-05-15T07:42:18.474Z,101044.92
2019-05-15T07:44:50.189Z,101040.45
2019-05-15T07:47:23.884Z,101047.94
2019-05-15T07:49:55.270Z,101054.42
2019-05-15T07:52:28.800Z,101050.11
2019-05-15T07:54:59.235Z,101042.81
2019-05-15T07:57:30.364Z,101040.03
2019-05-15T08:00:01.663Z,101044.94
2019-05-15T08:02:33.122Z,101038.72
2019-05-15T08:05:08.248Z,101047.72
2019-05-15T08:07:39.738Z,101042.94
2019-05-15T08:10:11.764Z,101048.13
2019-05-15T08:12:43.251Z,101052.39
2019-05-15T08:15:18.132Z,101047.64
2019-05-15T08:18:03.842Z,101049.81
2019-05-15T08:20:24.115Z,101049.00
2019-05-15T08:22:58.080Z,101040.48
2019-05-15T08:25:35.156Z,101039.16
2019-05-15T08:28:01.888Z,101037.60
2019-05-15T08:30:33.338Z,101040.53
2019-05-15T08:33:08.195Z,101039.92
2019-05-15T08:35:39.106Z,101032.66
2019-05-15T08:38:14.072Z,101039.03
2019-05-15T08:40:42.786Z,101040.53
2019-05-15T08:43:13.844Z,101039.80
2019-05-15T08:45:45.403Z,101045.20
2019-05-15T08:48:18.543Z,101040.29
2019-05-15T08:50:49.176Z,101043.59
2019-05-15T08:53:20.261Z,101045.16
2019-05-15T08:55:51.656Z,101036.71
2019-05-15T08:58:23.098Z,101050.94
2019-05-15T09:00:54.677Z,101053.26
2019-05-15T09:03:28.453Z,101050.30
2019-05-15T09:05:59.243Z,101046.77
2019-05-15T09:08:31.589Z,101044.44
2019-05-15T09:11:04.148Z,101035.55
2019-05-15T09:13:42.213Z,101034.31
2019-05-15T09:16:09.997Z,101037.46
2019-05-15T09:18:42.123Z,101040.35
2019-05-15T09:21:14.252Z,101037.13
2019-05-15T09:23:48.945Z,101032.95
2019-05-15T09:26:22.304Z,101039.20
2019-05-15T09:28:58.440Z,101035.64
2019-05-15T09:31:31.492Z,101033.03
2019-05-15T09:34:05.562Z,101031.61
2019-05-15T09:36:44.416Z,101034.08
2019-05-15T09:39:14.165Z,101028.91
2019-05-15T09:41:48.744Z,101032.55
2019-05-15T09:44:22.283Z,101040.19
2019-05-15T09:46:54.300Z,101035.39
2019-05-15T09:49:28.569Z,101036.82
2019-05-15T09:52:03.223Z,101040.45
2019-05-15T09:54:34.740Z,101041.42
2019-05-15T09:57:11.289Z,101047.71
2019-05-15T09:59:44.455Z,101042.66
2019-05-15T10:02:18.942Z,101052.31
2019-05-15T10:05:05.477Z,101049.44
2019-05-15T10:07:24.393Z,101051.84
2019-05-15T10:09:55.769Z,101057.94
2019-05-15T10:12:34.526Z,101056.78
2019-05-15T10:15:00.533Z,101049.79
2019-05-15T10:17:32.054Z,101048.34
2019-05-15T10:20:03.794Z,101047.97
2019-05-15T10:22:35.260Z,101051.61
2019-05-15T10:25:08.454Z,101051.00
2019-05-15T10:27:40.053Z,101048.34
2019-05-15T10:30:12.052Z,101042.66
2019-05-15T10:32:43.673Z,101041.48
2019-05-15T10:35:27.512Z,101040.87
2019-05-15T10:37:48.711Z,101045.90
2019-05-15T10:40:21.262Z,101041.84
2019-05-15T10:42:52.711Z,101041.86
2019-05-15T10:45:24.014Z,101044.34
2019-05-15T10:48:00.740Z,101041.94
2019-05-15T10:50:31.981Z,101033.69
2019-05-15T10:53:03.784Z,101033.11
2019-05-15T10:55:35.281Z,101032.27
2019-05-15T10:58:06.770Z,101026.86
2019-05-15T11:00:38.100Z,101021.94
2019-05-15T11:03:09.727Z,101017.47
2019-05-15T11:05:45.533Z,101021.16
2019-05-15T11:08:14.291Z,101019.22
2019-05-15T11:10:45.815Z,101020.61
2019-05-15T11:13:18.656Z,101033.14
2019-05-15T11:15:50.535Z,101032.56
2019-05-15T11:18:21.934Z,101038.86
2019-05-15T11:20:53.618Z,101040.11
2019-05-15T11:23:25.061Z,101030.20
2019-05-15T11:25:58.149Z,101035.14
2019-05-15T11:28:32.341Z,101038.30
2019-05-15T11:31:02.775Z,101028.59
2019-05-15T11:33:34.086Z,101029.77
2019-05-15T11:36:06.342Z,101033.69
2019-05-15T11:38:38.318Z,101025.55
2019-05-15T11:41:09.907Z,101031.39
2019-05-15T11:43:41.217Z,101030.59
2019-05-15T11:46:12.600Z,101033.05
2019-05-15T11:48:44.072Z,101025.51
2019-05-15T11:51:18.321Z,101028.59
2019-05-15T11:53:49.225Z,101023.47
2019-05-15T11:56:20.520Z,101019.59
2019-05-15T11:58:52.059Z,101022.73
2019-05-15T12:01:24.803Z,101018.58
2019-05-15T12:03:58.567Z,101018.02
2019-05-15T12:06:29.805Z,101015.77
2019-05-15T12:09:01.399Z,101017.45
2019-05-15T12:11:36.965Z,101014.48
2019-05-15T12:14:08.473Z,101011.67
2019-05-15T12:16:39.939Z,100998.57
2019-05-15T12:19:16.953Z,100997.45
2019-05-15T12:21:48.591Z,100999.83
2019-05-15T12:24:19.095Z,100994.98
2019-05-15T12:26:50.605Z,100988.58
2019-05-15T12:29:21.980Z,100996.52
2019-05-15T12:31:53.384Z,100995.95
2019-05-15T12:34:24.879Z,100998.69
2019-05-15T12:37:59.272Z,100996.00
2019-05-15T12:39:30.287Z,100997.23
2019-05-15T12:59:53.364Z,100983.78
2019-05-15T13:02:27.926Z,100985.23
2019-05-15T13:04:59.128Z,100985.75
2019-05-15T13:07:30.527Z,100987.50
2019-05-15T13:10:01.831Z,100980.09
2019-05-15T13:12:33.285Z,100977.54
2019-05-15T13:15:08.235Z,100978.51
2019-05-15T13:17:39.837Z,100982.29
2019-05-15T13:20:11.425Z,100973.75
2019-05-15T13:22:42.943Z,100982.37
2019-05-15T13:25:14.425Z,100985.00
2019-05-15T13:27:45.800Z,100979.89
2019-05-15T13:30:19.611Z,100987.64
2019-05-15T13:32:50.860Z,100989.37
2019-05-15T13:35:22.175Z,100992.26
2019-05-15T13:37:53.719Z,100989.67
2019-05-15T13:40:34.994Z,100997.58
2019-05-15T13:42:58.896Z,100990.11
2019-05-15T13:45:30.441Z,100982.80
2019-05-15T13:48:01.749Z,100984.89
2019-05-15T13:50:33.128Z,100994.42
2019-05-15T13:53:04.455Z,100987.52
2019-05-15T13:55:37.975Z,100990.39
2019-05-15T13:58:08.834Z,100985.86
2019-05-15T14:00:40.282Z,100980.45
2019-05-15T14:03:11.803Z,100969.83
2019-05-15T14:05:45.080Z,100980.56
2019-05-15T14:08:17.857Z,100986.40
2019-05-15T14:10:48.709Z,100980.98
2019-05-15T14:13:20.420Z,100988.55
2019-05-15T14:15:51.849Z,100996.06
2019-05-15T14:18:23.132Z,100996.55
2019-05-15T14:20:54.535Z,101001.29
2019-05-15T14:23:25.893Z,101001.25
2019-05-15T14:25:59.010Z,100995.54
2019-05-15T14:28:29.637Z,100996.47
2019-05-15T14:31:00.759Z,100998.02
2019-05-15T14:33:32.200Z,100992.80
2019-05-15T14:36:03.756Z,100996.81
2019-05-15T14:38:35.095Z,100999.16
2019-05-15T14:41:08.785Z,100996.16
2019-05-15T14:43:40.291Z,100991.89
2019-05-15T14:46:12.435Z,100990.38
2019-05-15T14:48:43.785Z,100981.98
2019-05-15T14:51:16.230Z,100989.52
2019-05-15T14:53:48.999Z,100986.42
2019-05-15T14:56:20.920Z,100979.20
2019-05-15T14:58:52.257Z,100977.77
2019-05-15T15:01:23.675Z,100978.60
2019-05-15T15:03:55.242Z,100976.95
2019-05-15T15:06:26.706Z,100980.34
2019-05-15T15:08:59.223Z,100974.73
2019-05-15T15:11:31.068Z,100978.42
2019-05-15T15:14:02.497Z,100971.16
2019-05-15T15:16:33.946Z,100969.77
2019-05-15T15:19:05.770Z,100971.77
2019-05-15T15:21:38.392Z,100975.47
2019-05-15T15:24:10.353Z,100977.20
2019-05-15T15:26:41.869Z,100973.34
2019-05-15T15:29:13.365Z,100972.03
2019-05-15T15:31:45.147Z,100970.94
2019-05-15T15:34:19.396Z,100972.27
2019-05-15T15:36:48.992Z,100972.04
2019-05-15T15:39:20.288Z,100971.36
2019-05-15T15:41:51.872Z,100968.31
2019-05-15T15:44:23.268Z,100972.17
2019-05-15T15:46:55.046Z,100970.94
2019-05-15T15:49:27.913Z,100976.77
2019-05-15T15:52:00.452Z,100975.60
2019-05-15T15:54:31.877Z,100973.97
2019-05-15T15:57:03.277Z,100969.02
2019-05-15T15:59:34.856Z,100972.48
2019-05-15T16:02:08.888Z,100968.02
2019-05-15T16:04:40.545Z,100973.95
2019-05-15T16:07:11.848Z,100962.50
2019-05-15T16:09:43.250Z,100960.33
2019-05-15T16:12:15.151Z,100961.10
2019-05-15T16:14:48.876Z,100952.02
2019-05-15T16:17:20.460Z,100959.91
2019-05-15T16:19:51.808Z,100951.77
2019-05-15T16:22:23.461Z,100958.21
2019-05-15T16:24:54.942Z,100954.05
2019-05-15T16:27:28.599Z,100952.88
2019-05-15T16:29:59.549Z,100957.96
2019-05-15T16:32:30.896Z,100952.16
2019-05-15T16:35:02.359Z,100952.92
2019-05-15T16:37:34.131Z,100953.23
2019-05-15T16:40:10.198Z,100955.45
2019-05-15T16:42:41.629Z,100953.39
2019-05-15T16:45:13.743Z,100954.06
2019-05-15T16:47:45.305Z,100953.74
2019-05-15T16:50:18.017Z,100955.97
2019-05-15T16:52:49.285Z,100958.38
2019-05-15T16:55:20.377Z,100957.03
2019-05-15T16:57:51.929Z,100956.44
2019-05-15T17:00:24.035Z,100966.03
2019-05-15T17:03:08.590Z,100961.25
2019-05-15T17:05:29.235Z,100956.86
2019-05-15T17:08:00.569Z,100959.27
2019-05-15T17:10:32.053Z,100958.19
2019-05-15T17:13:03.348Z,100954.02
2019-05-15T17:15:35.086Z,100961.53
2019-05-15T17:18:08.743Z,100957.27
2019-05-15T17:20:39.628Z,100954.89
2019-05-15T17:23:12.187Z,100953.48
2019-05-15T17:25:43.609Z,100954.80
2019-05-15T17:28:15.188Z,100957.12
2019-05-15T17:30:48.738Z,100956.72
2019-05-15T17:33:18.988Z,100951.50
2019-05-15T17:35:50.123Z,100957.36
2019-05-15T17:38:21.641Z,100958.37
2019-05-15T17:40:52.982Z,100966.42
2019-05-15T17:43:24.649Z,100965.34
2019-05-15T17:45:58.209Z,100966.29
2019-05-15T17:48:29.581Z,100971.97
2019-05-15T17:51:01.162Z,100968.74
2019-05-15T17:53:34.903Z,100973.42
2019-05-15T17:56:08.574Z,100972.52
2019-05-15T17:58:40.993Z,100973.29
2019-05-15T18:01:12.547Z,100975.44
2019-05-15T18:03:44.581Z,100980.91
2019-05-15T18:06:16.063Z,100983.89
2019-05-15T18:08:48.586Z,100985.21
2019-05-15T18:11:20.293Z,100985.77
2019-05-15T18:13:51.816Z,100984.90
2019-05-15T18:16:23.275Z,100993.83
2019-05-15T18:19:01.015Z,100987.73
2019-05-15T18:21:38.406Z,100988.43
2019-05-15T18:24:10.110Z,100990.82
2019-05-15T18:26:41.638Z,100983.05
2019-05-15T18:29:13.085Z,100985.13
2019-05-15T18:31:44.961Z,100982.18
2019-05-15T18:34:18.594Z,100981.80
2019-05-15T18:36:49.728Z,100989.42
2019-05-15T18:39:21.418Z,100989.11
2019-05-15T18:41:53.074Z,100984.00
2019-05-15T18:44:24.558Z,100991.80
2019-05-15T18:46:58.150Z,100993.94
2019-05-15T18:49:28.594Z,100999.81
2019-05-15T18:51:59.778Z,100992.70
2019-05-15T18:54:31.087Z,100994.22
2019-05-15T18:57:02.434Z,100996.79
2019-05-15T18:59:33.674Z,100993.47
2019-05-15T19:02:05.092Z,100993.00
2019-05-15T19:04:38.355Z,100994.33
2019-05-15T19:07:09.972Z,100995.55
2019-05-15T19:09:41.571Z,100989.21
2019-05-15T19:12:13.331Z,100991.28
2019-05-15T19:14:44.681Z,100998.56
2019-05-15T19:17:16.009Z,100995.59
2019-05-15T19:19:48.193Z,100992.33
2019-05-15T19:22:19.912Z,100995.92
2019-05-15T19:24:51.361Z,100991.60
2019-05-15T19:27:23.027Z,100992.43
2019-05-15T19:29:54.470Z,100992.33
2019-05-15T19:32:27.849Z,100991.84
2019-05-15T19:34:59.082Z,100988.88
2019-05-15T19:37:30.564Z,100993.86
2019-05-15T19:40:05.761Z,100991.33
2019-05-15T19:42:38.351Z,100994.61
2019-05-15T19:45:10.718Z,100993.37
2019-05-15T19:47:42.266Z,100992.33
2019-05-15T19:50:14.077Z,100990.22
2019-05-15T19:52:45.733Z,100984.58
2019-05-15T19:55:20.913Z,100988.53
2019-05-15T19:57:51.081Z,100977.08
2019-05-15T20:00:22.495Z,100985.79
2019-05-15T20:02:53.924Z,100981.88
2019-05-15T20:05:25.617Z,100980.07
2019-05-15T20:07:58.800Z,100972.17
2019-05-15T20:10:31.948Z,100976.56
2019-05-15T20:13:03.481Z,100981.13
2019-05-15T20:15:35.034Z,100984.88
2019-05-15T20:18:07.931Z,100986.58
2019-05-15T20:20:38.827Z,100984.66
2019-05-15T20:23:10.213Z,100987.74
2019-05-15T20:25:41.754Z,100985.30
2019-05-15T20:28:13.233Z,100977.44
2019-05-15T20:30:44.696Z,100986.36
2019-05-15T20:33:17.944Z,100984.98
2019-05-15T20:35:48.824Z,100986.48
2019-05-15T20:38:19.875Z,100978.94
2019-05-15T20:40:51.445Z,100976.50
2019-05-15T20:43:22.863Z,100976.70
2019-05-15T20:45:54.219Z,100983.19
2019-05-15T20:48:25.623Z,100975.00
2019-05-15T20:50:58.958Z,100977.34
2019-05-15T20:53:30.179Z,100976.92
2019-05-15T20:56:01.729Z,100976.19
2019-05-15T20:58:33.422Z,100978.81
2019-05-15T21:01:05.210Z,100969.37
2019-05-15T21:03:36.699Z,100974.12
2019-05-15T21:06:09.167Z,100968.40
2019-05-15T21:08:40.552Z,100971.48
2019-05-15T21:11:12.392Z,100971.16
2019-05-15T21:13:43.975Z,100976.04
2019-05-15T21:16:15.286Z,100970.52
2019-05-15T21:18:46.766Z,100972.86
2019-05-15T21:21:19.215Z,100977.75
2019-05-15T21:23:50.859Z,100977.64
2019-05-15T21:26:22.320Z,100974.55
2019-05-15T21:28:53.979Z,100978.47
2019-05-15T21:31:26.469Z,100980.48
2019-05-15T21:33:58.882Z,100980.08
2019-05-15T21:36:31.362Z,100976.56
2019-05-15T21:39:02.963Z,100977.64
2019-05-15T21:41:34.536Z,100972.95
2019-05-15T21:44:07.972Z,100977.20
2019-05-15T21:46:39.062Z,100974.75
2019-05-15T21:49:11.258Z,100968.70
2019-05-15T21:51:42.886Z,100972.01
2019-05-15T21:54:14.336Z,100973.91
2019-05-15T21:56:47.501Z,100972.32
2019-05-15T21:59:19.184Z,100970.73
2019-05-15T22:01:50.500Z,100976.64
2019-05-15T22:04:21.879Z,100982.57
2019-05-15T22:06:53.201Z,100975.44
2019-05-15T22:09:24.736Z,100974.06
2019-05-15T22:11:58.337Z,100975.53
2019-05-15T22:14:29.687Z,100972.37
2019-05-15T22:17:01.077Z,100967.91
2019-05-15T22:19:32.470Z,100956.42
2019-05-15T22:22:03.899Z,100956.02
2019-05-15T22:24:37.752Z,100954.78
2019-05-15T22:27:09.616Z,100951.91
2019-05-15T22:29:40.804Z,100949.45
2019-05-15T22:32:12.534Z,100955.58
2019-05-15T22:34:43.987Z,100957.69
2019-05-15T22:37:17.880Z,100964.69
2019-05-15T22:39:48.472Z,100965.81
2019-05-15T22:42:19.784Z,100958.70
2019-05-15T22:44:51.237Z,100970.29
2019-05-15T22:47:22.552Z,100968.05
2019-05-15T22:49:53.984Z,100966.34
2019-05-15T22:52:27.761Z,100962.25
2019-05-15T22:54:58.609Z,100961.59
2019-05-15T22:57:29.907Z,100956.84
2019-05-15T23:00:01.928Z,100963.19
2019-05-15T23:02:34.834Z,100964.50
2019-05-15T23:05:19.754Z,100963.30
2019-05-15T23:07:40.046Z,100966.45
2019-05-15T23:10:11.801Z,100972.06
2019-05-15T23:12:43.137Z,100973.77
2019-05-15T23:15:15.412Z,100973.66
2019-05-15T23:17:48.350Z,100969.50
2019-05-15T23:20:19.847Z,100969.30
2019-05-15T23:22:51.080Z,100975.05
2019-05-15T23:25:22.545Z,100977.48
2019-05-15T23:27:53.997Z,100974.29
2019-05-15T23:30:25.545Z,100977.56
2019-05-15T23:32:58.042Z,100973.27
2019-05-15T23:35:37.891Z,100969.80
2019-05-15T23:38:02.779Z,100968.99
2019-05-15T23:40:34.101Z,100976.86
2019-05-15T23:43:08.670Z,100975.48
2019-05-15T23:45:39.133Z,100959.36
2019-05-15T23:48:10.426Z,100965.84
2019-05-15T23:50:42.010Z,100963.64
2019-05-15T23:53:13.321Z,100962.20
2019-05-15T23:55:44.643Z,100959.84
2019-05-15T23:58:19.139Z,100959.52
